createdAt,value
2016-08-12T00:00:57.575Z,13.49
2016-08-12T00:01:56.996Z,13.46
2016-08-12T00:02:58.400Z,13.41
2016-08-12T00:03:57.431Z,13.37
2016-08-12T00:04:59.822Z,13.37
2016-08-12T00:05:58.556Z,13.35
2016-08-12T00:06:58.561Z,13.44
2016-08-12T00:07:59.403Z,13.39
2016-08-12T00:08:57.860Z,13.37
2016-08-12T00:10:00.151Z,13.37
2016-08-12T00:10:58.327Z,13.33
2016-08-12T00:11:57.385Z,13.35
2016-08-12T00:12:57.655Z,13.44
2016-08-12T00:13:57.596Z,13.39
2016-08-12T00:14:58.416Z,13.33
2016-08-12T00:15:57.462Z,13.38
2016-08-12T00:16:57.753Z,13.28
2016-08-12T00:17:57.699Z,13.37
2016-08-12T00:18:58.002Z,13.3
2016-08-12T00:19:57.612Z,13.35
2016-08-12T00:20:58.014Z,13.41
2016-08-12T00:21:57.743Z,13.44
2016-08-12T00:22:57.732Z,13.33
2016-08-12T00:23:59.010Z,13.38
2016-08-12T00:24:58.298Z,13.37
2016-08-12T00:25:59.083Z,13.35
2016-08-12T00:26:58.929Z,13.28
2016-08-12T00:27:59.488Z,13.35
2016-08-12T00:28:58.256Z,13.3
2016-08-12T00:29:58.382Z,13.37
2016-08-12T00:30:59.484Z,13.33
2016-08-12T00:31:59.087Z,13.38
2016-08-12T00:33:58.058Z,13.39
2016-08-12T00:34:58.330Z,13.35
2016-08-12T00:35:58.471Z,13.27
2016-08-12T00:36:57.937Z,13.35
2016-08-12T00:37:59.367Z,13.3
2016-08-12T00:39:00.260Z,13.39
2016-08-12T00:39:58.262Z,13.31
2016-08-12T00:40:58.400Z,13.31
2016-08-12T00:41:58.244Z,13.3
2016-08-12T00:42:59.512Z,13.3
2016-08-12T00:43:59.610Z,13.23
2016-08-12T00:44:59.418Z,13.31
2016-08-12T00:45:58.817Z,13.39
2016-08-12T00:46:58.559Z,13.38
2016-08-12T00:49:00.467Z,13.3
2016-08-12T00:49:58.509Z,13.31
2016-08-12T00:50:58.995Z,13.27
2016-08-12T00:51:59.456Z,13.37
2016-08-12T00:52:57.926Z,13.27
2016-08-12T00:53:59.652Z,13.35
2016-08-12T00:54:58.123Z,13.28
2016-08-12T00:55:59.270Z,13.23
2016-08-12T00:56:59.298Z,13.28
2016-08-12T00:57:59.208Z,13.25
2016-08-12T00:59:00.068Z,13.31
2016-08-12T00:59:58.392Z,13.33
2016-08-12T01:00:59.354Z,13.22
2016-08-12T01:01:58.919Z,13.27
2016-08-12T01:03:00.283Z,13.3
2016-08-12T01:03:59.035Z,13.31
2016-08-12T01:04:59.922Z,13.3
2016-08-12T01:06:00.337Z,13.33
2016-08-12T01:07:00.320Z,13.37
2016-08-12T01:07:59.459Z,13.41
2016-08-12T01:08:58.448Z,13.37
2016-08-12T01:09:59.844Z,13.35
2016-08-12T01:11:00.171Z,13.37
2016-08-12T01:11:59.754Z,13.3
2016-08-12T01:13:00.114Z,13.31
2016-08-12T01:13:59.423Z,13.3
2016-08-12T01:15:02.080Z,13.28
2016-08-12T01:15:59.401Z,13.23
2016-08-12T01:16:59.820Z,13.23
2016-08-12T01:18:00.308Z,13.15
2016-08-12T01:18:59.214Z,13.25
2016-08-12T01:19:59.028Z,13.22
2016-08-12T01:20:59.669Z,13.22
2016-08-12T01:22:00.572Z,13.3
2016-08-12T01:22:59.598Z,13.3
2016-08-12T01:24:00.207Z,13.25
2016-08-12T01:25:00.160Z,13.27
2016-08-12T01:25:59.229Z,13.25
2016-08-12T01:27:00.108Z,13.28
2016-08-12T01:27:58.985Z,13.28
2016-08-12T01:28:59.625Z,13.22
2016-08-12T01:29:59.051Z,13.23
2016-08-12T01:30:59.795Z,13.25
2016-08-12T01:31:59.749Z,13.25
2016-08-12T01:32:59.664Z,13.13
2016-08-12T01:33:59.796Z,13.27
2016-08-12T01:35:00.094Z,13.28
2016-08-12T01:35:59.205Z,13.27
2016-08-12T01:37:00.455Z,13.37
2016-08-12T01:38:00.724Z,13.3
2016-08-12T01:39:00.628Z,13.25
2016-08-12T01:40:00.204Z,13.23
2016-08-12T01:41:00.385Z,13.28
2016-08-12T01:42:00.138Z,13.3
2016-08-12T01:42:59.600Z,13.3
2016-08-12T01:43:59.624Z,13.3
2016-08-12T01:45:01.595Z,13.28
2016-08-12T01:46:00.292Z,13.27
2016-08-12T01:47:00.209Z,13.27
2016-08-12T01:48:00.715Z,13.23
2016-08-12T01:49:00.387Z,13.25
2016-08-12T01:50:00.469Z,13.28
2016-08-12T01:50:59.809Z,13.27
2016-08-12T01:52:00.230Z,13.23
2016-08-12T01:53:01.516Z,13.27
2016-08-12T01:54:00.570Z,13.2
2016-08-12T01:55:01.019Z,13.3
2016-08-12T01:55:59.478Z,13.22
2016-08-12T01:56:59.786Z,13.35
2016-08-12T01:58:01.482Z,13.35
2016-08-12T01:59:00.902Z,13.31
2016-08-12T02:00:00.053Z,13.22
2016-08-12T02:00:59.743Z,13.31
2016-08-12T02:02:00.265Z,13.2
2016-08-12T02:03:00.445Z,13.37
2016-08-12T02:04:01.355Z,13.39
2016-08-12T02:05:00.675Z,13.27
2016-08-12T02:06:01.273Z,13.23
2016-08-12T02:07:01.497Z,13.35
2016-08-12T02:08:01.295Z,13.3
2016-08-12T02:09:00.876Z,13.3
2016-08-12T02:10:00.304Z,13.27
2016-08-12T02:11:00.414Z,13.25
2016-08-12T02:12:00.342Z,13.27
2016-08-12T02:13:00.698Z,13.37
2016-08-12T02:14:01.343Z,13.41
2016-08-12T02:15:02.235Z,13.35
2016-08-12T02:16:00.107Z,13.31
2016-08-12T02:17:02.423Z,13.38
2016-08-12T02:17:59.884Z,13.37
2016-08-12T02:19:00.790Z,13.38
2016-08-12T02:20:01.605Z,13.33
2016-08-12T02:21:01.052Z,13.37
2016-08-12T02:22:01.434Z,13.23
2016-08-12T02:23:00.932Z,13.38
2016-08-12T02:24:00.803Z,13.42
2016-08-12T02:25:01.900Z,13.3
2016-08-12T02:26:01.721Z,13.35
2016-08-12T02:27:00.723Z,13.35
2016-08-12T02:28:02.103Z,13.28
2016-08-12T02:29:01.922Z,13.39
2016-08-12T02:30:01.944Z,13.41
2016-08-12T02:31:00.535Z,13.38
2016-08-12T02:32:01.879Z,13.33
2016-08-12T02:33:01.503Z,13.31
2016-08-12T02:34:01.641Z,13.44
2016-08-12T02:35:01.101Z,13.38
2016-08-12T02:36:02.049Z,13.41
2016-08-12T02:37:01.010Z,13.35
2016-08-12T02:38:01.452Z,13.37
2016-08-12T02:39:01.051Z,13.41
2016-08-12T02:40:01.802Z,13.38
2016-08-12T02:41:01.450Z,13.44
2016-08-12T02:42:01.034Z,13.37
2016-08-12T02:43:00.876Z,13.41
2016-08-12T02:44:01.804Z,13.31
2016-08-12T02:45:00.854Z,13.37
2016-08-12T02:46:01.276Z,13.41
2016-08-12T02:47:02.362Z,13.49
2016-08-12T02:48:01.736Z,13.41
2016-08-12T02:49:02.583Z,13.42
2016-08-12T02:50:01.838Z,13.38
2016-08-12T02:51:01.466Z,13.46
2016-08-12T02:52:01.474Z,13.39
2016-08-12T02:53:01.393Z,13.38
2016-08-12T02:54:02.031Z,13.35
2016-08-12T02:55:02.007Z,13.41
2016-08-12T02:56:02.354Z,13.44
2016-08-12T02:57:02.141Z,13.39
2016-08-12T02:58:00.986Z,13.46
2016-08-12T02:59:01.467Z,13.41
2016-08-12T03:00:01.694Z,13.44
2016-08-12T03:01:00.936Z,13.37
2016-08-12T03:02:02.317Z,13.35
2016-08-12T03:03:02.847Z,13.3
2016-08-12T03:04:01.833Z,13.41
2016-08-12T03:05:02.324Z,13.39
2016-08-12T03:06:02.849Z,13.39
2016-08-12T03:07:01.958Z,13.42
2016-08-12T03:08:02.077Z,13.42
2016-08-12T03:09:02.782Z,13.44
2016-08-12T03:10:03.186Z,13.35
2016-08-12T03:11:02.712Z,13.38
2016-08-12T03:12:02.206Z,13.39
2016-08-12T03:13:03.623Z,13.37
2016-08-12T03:14:02.150Z,13.46
2016-08-12T03:15:02.211Z,13.46
2016-08-12T03:16:02.832Z,13.39
2016-08-12T03:17:02.704Z,13.46
2016-08-12T03:18:03.457Z,13.44
2016-08-12T03:19:04.120Z,13.38
2016-08-12T03:20:02.606Z,13.47
2016-08-12T03:21:02.544Z,13.47
2016-08-12T03:22:02.202Z,13.42
2016-08-12T03:23:02.443Z,13.44
2016-08-12T03:24:02.882Z,13.47
2016-08-12T03:25:02.521Z,13.42
2016-08-12T03:26:03.417Z,13.44
2016-08-12T03:27:03.564Z,13.41
2016-08-12T03:28:02.763Z,13.49
2016-08-12T03:29:02.859Z,13.39
2016-08-12T03:30:02.135Z,13.42
2016-08-12T03:31:02.251Z,13.37
2016-08-12T03:32:02.998Z,13.44
2016-08-12T03:33:02.162Z,13.44
2016-08-12T03:34:02.168Z,13.39
2016-08-12T03:35:02.267Z,13.42
2016-08-12T03:36:02.756Z,13.46
2016-08-12T03:37:02.126Z,13.49
2016-08-12T03:38:03.179Z,13.42
2016-08-12T03:39:02.054Z,13.39
2016-08-12T03:40:03.026Z,13.31
2016-08-12T03:41:02.118Z,13.38
2016-08-12T03:42:02.330Z,13.39
2016-08-12T03:43:04.594Z,13.41
2016-08-12T03:44:02.511Z,13.47
2016-08-12T03:45:02.222Z,13.39
2016-08-12T03:46:04.399Z,13.39
2016-08-12T03:47:03.158Z,13.5
2016-08-12T03:48:02.384Z,13.5
2016-08-12T03:49:02.346Z,13.47
2016-08-12T03:50:02.549Z,13.46
2016-08-12T03:51:02.913Z,13.49
2016-08-12T03:52:03.457Z,13.52
2016-08-12T03:53:02.287Z,13.46
2016-08-12T03:54:03.164Z,13.49
2016-08-12T03:55:03.428Z,13.52
2016-08-12T03:56:03.871Z,13.56
2016-08-12T03:57:02.350Z,13.54
2016-08-12T03:58:03.573Z,13.47
2016-08-12T03:59:02.509Z,13.49
2016-08-12T04:00:03.065Z,13.56
2016-08-12T04:01:05.041Z,13.46
2016-08-12T04:02:02.753Z,13.49
2016-08-12T04:03:02.607Z,13.49
2016-08-12T04:05:03.675Z,13.56
2016-08-12T04:06:02.672Z,13.53
2016-08-12T04:07:03.374Z,13.56
2016-08-12T04:08:03.602Z,13.56
2016-08-12T04:09:02.576Z,13.57
2016-08-12T04:10:02.842Z,13.56
2016-08-12T04:11:05.665Z,13.56
2016-08-12T04:12:03.824Z,13.57
2016-08-12T04:13:03.260Z,13.62
2016-08-12T04:14:03.560Z,13.57
2016-08-12T04:15:02.619Z,13.65
2016-08-12T04:16:03.281Z,13.54
2016-08-12T04:17:04.438Z,13.57
2016-08-12T04:18:02.955Z,13.56
2016-08-12T04:19:03.362Z,13.57
2016-08-12T04:20:04.244Z,13.62
2016-08-12T04:21:04.020Z,13.6
2016-08-12T04:22:03.441Z,13.68
2016-08-12T04:23:04.014Z,13.59
2016-08-12T04:24:03.036Z,13.57
2016-08-12T04:25:03.398Z,13.67
2016-08-12T04:26:04.019Z,13.68
2016-08-12T04:27:04.159Z,13.67
2016-08-12T04:28:05.007Z,13.63
2016-08-12T04:29:03.001Z,13.67
2016-08-12T04:30:03.068Z,13.67
2016-08-12T04:31:03.086Z,13.62
2016-08-12T04:32:02.944Z,13.68
2016-08-12T04:33:03.566Z,13.68
2016-08-12T04:34:04.970Z,13.68
2016-08-12T04:35:04.183Z,13.71
2016-08-12T04:36:03.986Z,13.63
2016-08-12T04:37:02.794Z,13.65
2016-08-12T04:38:02.896Z,13.7
2016-08-12T04:39:04.050Z,13.68
2016-08-12T04:40:04.220Z,13.77
2016-08-12T04:41:04.761Z,13.74
2016-08-12T04:42:04.712Z,13.81
2016-08-12T04:43:04.867Z,13.79
2016-08-12T04:44:04.004Z,13.78
2016-08-12T04:45:04.467Z,13.75
2016-08-12T04:46:04.357Z,13.78
2016-08-12T04:47:03.962Z,13.77
2016-08-12T04:48:03.721Z,13.79
2016-08-12T04:50:04.121Z,13.75
2016-08-12T04:51:03.714Z,13.74
2016-08-12T04:52:04.594Z,13.78
2016-08-12T04:53:04.556Z,13.77
2016-08-12T04:54:05.647Z,13.71
2016-08-12T04:55:04.937Z,13.79
2016-08-12T04:56:04.192Z,13.81
2016-08-12T04:57:04.298Z,13.81
2016-08-12T04:58:04.816Z,13.77
2016-08-12T04:59:04.132Z,13.79
2016-08-12T05:00:05.613Z,13.79
2016-08-12T05:01:04.472Z,13.93
2016-08-12T05:02:05.046Z,13.93
2016-08-12T05:03:04.419Z,13.81
2016-08-12T05:05:04.966Z,13.92
2016-08-12T05:06:04.104Z,13.95
2016-08-12T05:07:05.181Z,13.9
2016-08-12T05:08:04.818Z,13.96
2016-08-12T05:09:03.629Z,13.87
2016-08-12T05:10:04.128Z,13.95
2016-08-12T05:11:03.712Z,13.89
2016-08-12T05:12:04.155Z,13.97
2016-08-12T05:13:04.498Z,13.99
2016-08-12T05:14:04.744Z,13.96
2016-08-12T05:15:05.264Z,13.97
2016-08-12T05:16:05.517Z,13.99
2016-08-12T05:17:04.867Z,14.04
2016-08-12T05:18:04.579Z,14.07
2016-08-12T05:19:05.315Z,14.03
2016-08-12T05:20:04.888Z,14.05
2016-08-12T05:21:05.126Z,14.03
2016-08-12T05:22:05.060Z,14.08
2016-08-12T05:23:04.474Z,14.04
2016-08-12T05:24:04.396Z,13.99
2016-08-12T05:25:04.674Z,13.93
2016-08-12T05:26:04.606Z,14.2
2016-08-12T05:27:06.007Z,14.11
2016-08-12T05:28:05.921Z,14.08
2016-08-12T05:29:05.895Z,14.11
2016-08-12T05:30:05.022Z,14.11
2016-08-12T05:31:04.960Z,14.1
2016-08-12T05:32:04.742Z,14.1
2016-08-12T05:33:04.618Z,14.2
2016-08-12T05:34:05.165Z,14.23
2016-08-12T05:35:05.255Z,14.15
2016-08-12T05:36:04.833Z,14.15
2016-08-12T05:37:05.279Z,14.08
2016-08-12T05:38:05.002Z,14.18
2016-08-12T05:39:06.284Z,14.17
2016-08-12T05:40:05.369Z,14.2
2016-08-12T05:41:05.299Z,14.14
2016-08-12T05:42:06.264Z,14.11
2016-08-12T05:43:05.074Z,14.2
2016-08-12T05:44:06.521Z,14.22
2016-08-12T05:45:05.238Z,14.17
2016-08-12T05:46:05.528Z,14.32
2016-08-12T05:47:06.522Z,14.28
2016-08-12T05:48:05.210Z,14.29
2016-08-12T05:49:06.170Z,14.37
2016-08-12T05:50:05.803Z,14.25
2016-08-12T05:51:05.656Z,14.33
2016-08-12T05:52:05.302Z,14.29
2016-08-12T05:53:05.350Z,14.32
2016-08-12T05:54:06.741Z,14.29
2016-08-12T05:55:06.154Z,14.4
2016-08-12T05:56:06.204Z,14.36
2016-08-12T05:57:05.476Z,14.44
2016-08-12T05:58:05.219Z,14.47
2016-08-12T05:59:06.207Z,14.44
2016-08-12T06:00:05.470Z,14.44
2016-08-12T06:01:05.181Z,14.5
2016-08-12T06:02:06.835Z,14.48
2016-08-12T06:03:06.785Z,14.53
2016-08-12T06:04:07.760Z,14.62
2016-08-12T06:05:06.724Z,14.63
2016-08-12T06:06:05.073Z,14.58
2016-08-12T06:07:06.706Z,14.55
2016-08-12T06:08:06.033Z,14.66
2016-08-12T06:09:05.630Z,14.66
2016-08-12T06:10:07.183Z,14.72
2016-08-12T06:11:05.414Z,14.54
2016-08-12T06:12:05.926Z,14.73
2016-08-12T06:13:06.532Z,14.69
2016-08-12T06:14:06.740Z,14.78
2016-08-12T06:15:05.559Z,14.82
2016-08-12T06:16:08.111Z,14.82
2016-08-12T06:17:05.728Z,14.78
2016-08-12T06:18:06.421Z,14.69
2016-08-12T06:19:06.438Z,14.77
2016-08-12T06:20:05.807Z,14.77
2016-08-12T06:21:07.610Z,14.72
2016-08-12T06:22:06.789Z,14.86
2016-08-12T06:23:06.608Z,14.81
2016-08-12T06:24:06.114Z,14.81
2016-08-12T06:25:07.554Z,14.82
2016-08-12T06:26:06.790Z,14.88
2016-08-12T06:27:05.960Z,14.88
2016-08-12T06:28:06.005Z,14.86
2016-08-12T06:29:06.972Z,14.94
2016-08-12T06:30:06.344Z,14.88
2016-08-12T06:31:06.553Z,14.92
2016-08-12T06:32:05.742Z,14.97
2016-08-12T06:33:05.730Z,14.88
2016-08-12T06:34:07.248Z,14.88
2016-08-12T06:35:06.259Z,14.97
2016-08-12T06:36:08.608Z,15.06
2016-08-12T06:37:06.718Z,15.1
2016-08-12T06:38:07.398Z,15.22
2016-08-12T06:39:07.759Z,15.24
2016-08-12T06:40:06.389Z,15.1
2016-08-12T06:41:06.463Z,15.11
2016-08-12T06:42:06.770Z,15.11
2016-08-12T06:43:07.401Z,15.24
2016-08-12T06:44:07.060Z,15.24
2016-08-12T06:45:06.204Z,15.18
2016-08-12T06:46:07.166Z,15.1
2016-08-12T06:47:06.191Z,15.09
2016-08-12T06:48:07.886Z,15.18
2016-08-12T06:49:08.178Z,15.11
2016-08-12T06:50:06.961Z,15.24
2016-08-12T06:51:06.879Z,15.21
2016-08-12T06:52:07.361Z,15.28
2016-08-12T06:53:06.613Z,15.28
2016-08-12T06:54:07.720Z,15.18
2016-08-12T06:55:07.697Z,15.29
2016-08-12T06:56:08.025Z,15.29
2016-08-12T06:57:07.184Z,15.47
2016-08-12T06:58:07.715Z,15.54
2016-08-12T06:59:07.924Z,15.46
2016-08-12T07:00:06.691Z,15.76
2016-08-12T07:01:07.680Z,16.01
2016-08-12T07:02:07.904Z,16
2016-08-12T07:03:07.781Z,16.01
2016-08-12T07:04:07.833Z,16.1
2016-08-12T07:05:07.154Z,16.09
2016-08-12T07:06:07.391Z,16.09
2016-08-12T07:07:08.600Z,15.83
2016-08-12T07:08:07.533Z,15.75
2016-08-12T07:09:07.181Z,15.75
2016-08-12T07:10:09.102Z,15.76
2016-08-12T07:11:09.150Z,15.86
2016-08-12T07:12:07.117Z,15.83
2016-08-12T07:13:06.939Z,15.73
2016-08-12T07:14:08.052Z,15.8
2016-08-12T07:15:07.665Z,15.75
2016-08-12T07:16:07.159Z,16.01
2016-08-12T07:17:07.122Z,16.08
2016-08-12T07:18:07.522Z,16.23
2016-08-12T07:19:08.264Z,16.09
2016-08-12T07:20:06.741Z,16.26
2016-08-12T07:21:08.220Z,16.38
2016-08-12T07:22:07.585Z,16.43
2016-08-12T07:23:07.404Z,16.53
2016-08-12T07:24:07.286Z,16.61
2016-08-12T07:25:07.224Z,16.53
2016-08-12T07:26:08.234Z,16.39
2016-08-12T07:27:07.185Z,16.6
2016-08-12T07:28:07.618Z,16.65
2016-08-12T07:29:07.983Z,16.46
2016-08-12T07:30:08.818Z,16.53
2016-08-12T07:31:08.310Z,16.78
2016-08-12T07:32:07.436Z,17.08
2016-08-12T07:33:08.689Z,17.3
2016-08-12T07:34:07.307Z,17.24
2016-08-12T07:35:08.502Z,17.09
2016-08-12T07:36:08.347Z,17.11
2016-08-12T07:37:10.138Z,17.27
2016-08-12T07:38:09.155Z,17.24
2016-08-12T07:39:09.231Z,17.27
2016-08-12T07:40:09.116Z,16.97
2016-08-12T07:41:08.742Z,17.08
2016-08-12T07:42:09.101Z,17.29
2016-08-12T07:43:08.889Z,17.34
2016-08-12T07:44:07.825Z,17.51
2016-08-12T07:45:07.774Z,17.31
2016-08-12T07:46:08.617Z,17.14
2016-08-12T07:47:08.756Z,17.26
2016-08-12T07:48:10.605Z,17.24
2016-08-12T07:49:08.713Z,17.41
2016-08-12T07:50:08.605Z,17.56
2016-08-12T07:51:09.718Z,17.42
2016-08-12T07:52:08.436Z,17.42
2016-08-12T07:53:09.674Z,17.42
2016-08-12T07:54:08.185Z,17.52
2016-08-12T07:55:08.416Z,17.64
2016-08-12T07:56:07.814Z,17.51
2016-08-12T07:57:07.992Z,17.6
2016-08-12T07:58:09.297Z,17.7
2016-08-12T07:59:07.846Z,17.63
2016-08-12T08:00:08.107Z,17.68
2016-08-12T08:01:10.000Z,17.64
2016-08-12T08:02:08.804Z,17.34
2016-08-12T08:03:09.112Z,17.41
2016-08-12T08:04:08.866Z,17.54
2016-08-12T08:05:09.086Z,17.57
2016-08-12T08:06:08.784Z,17.65
2016-08-12T08:07:08.612Z,17.49
2016-08-12T08:08:09.440Z,17.54
2016-08-12T08:09:07.863Z,17.63
2016-08-12T08:10:09.723Z,17.67
2016-08-12T08:11:08.961Z,17.74
2016-08-12T08:12:09.935Z,17.8
2016-08-12T08:13:09.037Z,17.67
2016-08-12T08:14:09.435Z,17.64
2016-08-12T08:15:09.874Z,17.82
2016-08-12T08:16:09.470Z,17.86
2016-08-12T08:17:10.692Z,17.74
2016-08-12T08:18:09.547Z,17.44
2016-08-12T08:19:09.025Z,17.6
2016-08-12T08:20:08.861Z,17.85
2016-08-12T08:21:08.602Z,17.86
2016-08-12T08:22:08.406Z,17.83
2016-08-12T08:23:08.890Z,17.64
2016-08-12T08:24:10.280Z,17.63
2016-08-12T08:25:08.442Z,17.59
2016-08-12T08:26:09.567Z,17.85
2016-08-12T08:27:10.178Z,17.98
2016-08-12T08:28:09.483Z,17.89
2016-08-12T08:29:09.764Z,17.89
2016-08-12T08:30:09.779Z,18
2016-08-12T08:31:09.790Z,18.1
2016-08-12T08:32:08.794Z,18.29
2016-08-12T08:33:10.660Z,18.37
2016-08-12T08:34:09.482Z,18.52
2016-08-12T08:35:10.473Z,18.75
2016-08-12T08:36:11.508Z,18.63
2016-08-12T08:37:10.307Z,18.71
2016-08-12T08:38:08.884Z,18.49
2016-08-12T08:39:09.414Z,18.49
2016-08-12T08:40:10.430Z,18.56
2016-08-12T08:41:09.624Z,18.71
2016-08-12T08:42:09.234Z,18.86
2016-08-12T08:43:09.981Z,19
2016-08-12T08:44:10.105Z,19.11
2016-08-12T08:45:09.847Z,19.04
2016-08-12T08:46:09.940Z,19.18
2016-08-12T08:47:10.314Z,19.31
2016-08-12T08:48:09.570Z,19.37
2016-08-12T08:49:09.657Z,19.29
2016-08-12T08:50:09.197Z,19.19
2016-08-12T08:51:09.250Z,19.29
2016-08-12T08:52:09.195Z,19.08
2016-08-12T08:53:09.264Z,19.18
2016-08-12T08:54:09.791Z,19.07
2016-08-12T08:55:09.959Z,19.19
2016-08-12T08:56:09.515Z,19.31
2016-08-12T08:57:11.347Z,19.41
2016-08-12T08:58:09.403Z,19.39
2016-08-12T08:59:10.829Z,19.29
2016-08-12T09:00:10.631Z,18.99
2016-08-12T09:01:12.078Z,18.8
2016-08-12T09:02:10.116Z,18.9
2016-08-12T09:03:11.409Z,18.74
2016-08-12T09:04:10.172Z,18.83
2016-08-12T09:05:10.906Z,18.78
2016-08-12T09:06:10.160Z,18.88
2016-08-12T09:07:10.837Z,18.71
2016-08-12T09:08:10.556Z,19.12
2016-08-12T09:09:09.349Z,19.4
2016-08-12T09:10:10.363Z,19.16
2016-08-12T09:11:10.242Z,19.49
2016-08-12T09:12:11.317Z,19.29
2016-08-12T09:13:10.733Z,19.22
2016-08-12T09:14:10.944Z,19.19
2016-08-12T09:15:10.304Z,19.21
2016-08-12T09:16:10.025Z,19.49
2016-08-12T09:17:09.935Z,19.59
2016-08-12T09:18:11.048Z,19.52
2016-08-12T09:19:11.508Z,19.74
2016-08-12T09:20:10.830Z,19.81
2016-08-12T09:21:09.950Z,19.92
2016-08-12T09:22:09.922Z,19.91
2016-08-12T09:23:10.508Z,19.56
2016-08-12T09:24:10.586Z,19.22
2016-08-12T09:25:11.932Z,19.4
2016-08-12T09:26:10.213Z,19.44
2016-08-12T09:27:11.283Z,19.49
2016-08-12T09:28:10.579Z,19.4
2016-08-12T09:29:10.419Z,19.69
2016-08-12T09:30:10.726Z,19.66
2016-08-12T09:31:11.458Z,19.73
2016-08-12T09:32:11.510Z,19.54
2016-08-12T09:33:10.617Z,19.36
2016-08-12T09:34:10.520Z,19.45
2016-08-12T09:35:11.779Z,19.76
2016-08-12T09:36:11.995Z,19.37
2016-08-12T09:37:11.120Z,19.39
2016-08-12T09:38:11.046Z,19.54
2016-08-12T09:39:11.078Z,19.4
2016-08-12T09:40:11.838Z,19.3
2016-08-12T09:41:11.433Z,19.3
2016-08-12T09:42:11.594Z,19.3
2016-08-12T09:43:11.878Z,19.26
2016-08-12T09:44:12.017Z,19.21
2016-08-12T09:45:11.212Z,19.45
2016-08-12T09:46:11.058Z,19.4
2016-08-12T09:47:11.432Z,19.54
2016-08-12T09:48:11.593Z,19.36
2016-08-12T09:49:12.553Z,19.36
2016-08-12T09:50:11.170Z,19.39
2016-08-12T09:51:10.925Z,19.19
2016-08-12T09:52:11.277Z,19.24
2016-08-12T09:53:13.096Z,19.24
2016-08-12T09:54:11.851Z,19.21
2016-08-12T09:55:11.597Z,19.18
2016-08-12T09:56:12.578Z,19.36
2016-08-12T09:57:12.070Z,18.98
2016-08-12T09:58:11.464Z,19.07
2016-08-12T09:59:11.449Z,19.08
2016-08-12T10:00:11.729Z,19.07
2016-08-12T10:01:13.148Z,19.24
2016-08-12T10:02:11.462Z,19.16
2016-08-12T10:03:11.452Z,19.21
2016-08-12T10:04:12.275Z,19.39
2016-08-12T10:05:11.042Z,19.31
2016-08-12T10:06:12.672Z,19.45
2016-08-12T10:07:12.926Z,19.49
2016-08-12T10:08:11.653Z,19.59
2016-08-12T10:09:11.281Z,19.44
2016-08-12T10:10:10.984Z,19.49
2016-08-12T10:11:11.377Z,19.77
2016-08-12T10:12:11.669Z,19.92
2016-08-12T10:13:13.463Z,19.84
2016-08-12T10:14:11.570Z,19.49
2016-08-12T10:15:12.685Z,19.85
2016-08-12T10:16:11.694Z,19.89
2016-08-12T10:17:12.468Z,19.85
2016-08-12T10:18:12.908Z,19.85
2016-08-12T10:19:13.695Z,20.24
2016-08-12T10:21:12.183Z,19.82
2016-08-12T10:22:12.340Z,19.85
2016-08-12T10:23:13.082Z,19.85
2016-08-12T10:24:12.196Z,19.85
2016-08-12T10:25:12.227Z,19.86
2016-08-12T10:26:11.623Z,20
2016-08-12T10:27:13.469Z,19.73
2016-08-12T10:28:13.125Z,19.69
2016-08-12T10:29:13.916Z,19.76
2016-08-12T10:30:12.693Z,19.96
2016-08-12T10:31:12.935Z,19.86
2016-08-12T10:32:12.390Z,19.76
2016-08-12T10:33:12.800Z,19.94
2016-08-12T10:34:13.887Z,20.09
2016-08-12T10:35:12.226Z,20.25
2016-08-12T10:36:12.995Z,20.13
2016-08-12T10:37:12.502Z,20.07
2016-08-12T10:38:13.554Z,20.11
2016-08-12T10:39:14.131Z,20.28
2016-08-12T10:40:13.343Z,20.09
2016-08-12T10:41:12.895Z,20.04
2016-08-12T10:42:12.344Z,20.41
2016-08-12T10:43:13.024Z,20.06
2016-08-12T10:44:13.145Z,19.99
2016-08-12T10:45:13.062Z,20.13
2016-08-12T10:46:13.645Z,20.1
2016-08-12T10:47:12.226Z,20.28
2016-08-12T10:48:13.771Z,20.03
2016-08-12T10:49:13.370Z,19.86
2016-08-12T10:50:13.787Z,19.86
2016-08-12T10:51:12.999Z,19.96
2016-08-12T10:52:13.235Z,19.95
2016-08-12T10:53:13.924Z,19.89
2016-08-12T10:54:13.775Z,19.82
2016-08-12T10:55:13.868Z,20.1
2016-08-12T10:56:14.313Z,20.14
2016-08-12T10:57:12.544Z,20.52
2016-08-12T10:58:14.267Z,20.95
2016-08-12T10:59:14.687Z,20.63
2016-08-12T11:00:13.888Z,20.95
2016-08-12T11:01:12.986Z,20.78
2016-08-12T11:02:15.931Z,20.34
2016-08-12T11:03:13.196Z,20.07
2016-08-12T11:04:13.998Z,20.1
2016-08-12T11:05:14.837Z,20.13
2016-08-12T11:06:14.019Z,20.25
2016-08-12T11:07:14.330Z,20.75
2016-08-12T11:08:13.789Z,20.82
2016-08-12T11:09:13.021Z,20.51
2016-08-12T11:10:14.368Z,20.25
2016-08-12T11:11:14.927Z,20.14
2016-08-12T11:12:13.323Z,20.07
2016-08-12T11:13:14.804Z,20.48
2016-08-12T11:14:15.471Z,20.6
2016-08-12T11:15:13.570Z,20.1
2016-08-12T11:16:13.760Z,20.1
2016-08-12T11:17:14.881Z,20.07
2016-08-12T11:18:14.848Z,20.24
2016-08-12T11:19:14.052Z,20.13
2016-08-12T11:20:13.886Z,19.94
2016-08-12T11:21:13.883Z,19.85
2016-08-12T11:22:13.824Z,19.81
2016-08-12T11:23:14.356Z,19.92
2016-08-12T11:24:14.771Z,19.96
2016-08-12T11:25:15.003Z,19.96
2016-08-12T11:26:14.449Z,20.13
2016-08-12T11:27:14.644Z,20.14
2016-08-12T11:28:15.172Z,19.99
2016-08-12T11:29:13.962Z,20.09
2016-08-12T11:30:14.313Z,20.06
2016-08-12T11:31:15.199Z,20.07
2016-08-12T11:32:13.989Z,20.14
2016-08-12T11:33:13.556Z,20.13
2016-08-12T11:34:13.976Z,20.37
2016-08-12T11:35:13.877Z,20.34
2016-08-12T11:36:15.244Z,20.41
2016-08-12T11:37:14.216Z,20.31
2016-08-12T11:38:15.707Z,20.5
2016-08-12T11:39:14.092Z,20.58
2016-08-12T11:40:14.847Z,21.03
2016-08-12T11:41:14.165Z,20.9
2016-08-12T11:42:14.036Z,21.07
2016-08-12T11:43:14.238Z,20.56
2016-08-12T11:44:14.124Z,20.74
2016-08-12T11:45:13.929Z,20.92
2016-08-12T11:46:14.808Z,20.9
2016-08-12T11:47:13.741Z,20.84
2016-08-12T11:48:16.387Z,20.7
2016-08-12T11:49:14.950Z,21.05
2016-08-12T11:50:14.310Z,20.58
2016-08-12T11:51:15.555Z,20.6
2016-08-12T11:52:15.041Z,20.75
2016-08-12T11:53:14.971Z,21.24
2016-08-12T11:54:15.090Z,20.82
2016-08-12T11:55:15.405Z,20.75
2016-08-12T11:56:16.463Z,20.52
2016-08-12T11:57:15.640Z,20.6
2016-08-12T11:58:15.101Z,20.51
2016-08-12T11:59:16.216Z,20.47
2016-08-12T12:00:15.031Z,20.9
2016-08-12T12:01:15.331Z,20.5
2016-08-12T12:02:16.173Z,20.29
2016-08-12T12:03:16.020Z,20.14
2016-08-12T12:04:17.235Z,20.11
2016-08-12T12:05:16.068Z,19.99
2016-08-12T12:06:15.809Z,19.84
2016-08-12T12:07:16.523Z,19.79
2016-08-12T12:08:17.613Z,20.11
2016-08-12T12:09:15.420Z,19.63
2016-08-12T12:10:15.410Z,19.76
2016-08-12T12:11:16.960Z,19.88
2016-08-12T12:12:16.109Z,19.99
2016-08-12T12:13:15.493Z,20.06
2016-08-12T12:14:16.281Z,20.48
2016-08-12T12:15:15.704Z,20.78
2016-08-12T12:16:15.142Z,20.52
2016-08-12T12:17:15.990Z,20.04
2016-08-12T12:18:15.990Z,19.88
2016-08-12T12:19:15.146Z,19.84
2016-08-12T12:20:15.667Z,19.71
2016-08-12T12:21:16.939Z,19.73
2016-08-12T12:22:16.249Z,19.64
2016-08-12T12:23:16.218Z,19.56
2016-08-12T12:24:16.810Z,19.59
2016-08-12T12:25:15.811Z,19.62
2016-08-12T12:26:17.213Z,19.76
2016-08-12T12:27:17.139Z,19.84
2016-08-12T12:28:15.794Z,19.79
2016-08-12T12:29:16.123Z,19.56
2016-08-12T12:30:16.708Z,19.56
2016-08-12T12:31:16.266Z,19.48
2016-08-12T12:32:16.969Z,19.4
2016-08-12T12:33:16.600Z,19.34
2016-08-12T12:34:17.084Z,19.47
2016-08-12T12:35:16.458Z,19.34
2016-08-12T12:36:16.074Z,19.44
2016-08-12T12:37:16.670Z,19.49
2016-08-12T12:38:17.515Z,19.29
2016-08-12T12:39:17.415Z,19.26
2016-08-12T12:40:15.878Z,19.39
2016-08-12T12:41:17.032Z,19.27
2016-08-12T12:42:16.391Z,19.33
2016-08-12T12:43:16.549Z,19.4
2016-08-12T12:44:16.877Z,19.39
2016-08-12T12:45:16.298Z,19.39
2016-08-12T12:46:16.133Z,19.47
2016-08-12T12:47:16.922Z,19.64
2016-08-12T12:48:16.092Z,19.7
2016-08-12T12:49:18.574Z,19.69
2016-08-12T12:50:16.538Z,19.71
2016-08-12T12:51:16.943Z,19.84
2016-08-12T12:52:17.051Z,20.24
2016-08-12T12:53:17.365Z,20.29
2016-08-12T12:54:17.716Z,20.37
2016-08-12T12:55:16.430Z,20.24
2016-08-12T12:56:19.009Z,20.07
2016-08-12T12:57:17.688Z,20.02
2016-08-12T12:58:17.446Z,20.26
2016-08-12T12:59:16.649Z,20.28
2016-08-12T13:00:16.432Z,20.1
2016-08-12T13:01:17.095Z,20.18
2016-08-12T13:02:18.434Z,20.36